Time;durP1;ratioP1;P1;durP2;ratioP2;P2;SDS_P1;SDS_P2;PMS_P1;PMS_P2;Temp;Humidity;BMP_temperature;BMP_pressure;BME280_temperature;BME280_humidity;BME280_pressure;Samples;Min_cycle;Max_cycle;Signal;HPM_P1;HPM_P2
2023/01/13 00:01:26;;;;;;;4.68;2.15;;;10.00;99.90;;;10.01;100.00;99651.00;4968321;28;20237;-74
2023/01/13 00:03:55;;;;;;;4.03;1.85;;;10.00;99.90;;;10.00;100.00;99657.19;4965002;28;20241;-72
2023/01/13 00:06:28;;;;;;;2.92;1.33;;;10.00;99.90;;;9.89;100.00;99667.75;4970749;28;20209;-74
2023/01/13 00:08:56;;;;;;;5.13;2.20;;;9.90;99.90;;;9.85;100.00;99666.00;4964365;28;20296;-72
2023/01/13 00:11:25;;;;;;;4.53;2.10;;;9.80;99.90;;;9.78;100.00;99672.16;4965445;28;20229;-73
2023/01/13 00:13:52;;;;;;;3.38;1.52;;;9.80;99.90;;;9.74;100.00;99659.84;4965217;28;20218;-74
2023/01/13 00:16:20;;;;;;;3.50;1.67;;;9.70;99.90;;;9.74;100.00;99662.47;4967187;28;20209;-73
2023/01/13 00:18:50;;;;;;;7.35;3.15;;;9.70;99.90;;;9.84;100.00;99668.63;4967539;28;20248;-73
2023/01/13 00:21:20;;;;;;;3.83;1.88;;;9.80;99.90;;;9.82;100.00;99651.91;4965898;28;20238;-72
2023/01/13 00:23:47;;;;;;;2.90;1.40;;;9.80;99.90;;;9.81;100.00;99656.31;4968549;28;20701;-73
2023/01/13 00:26:18;;;;;;;4.72;2.20;;;9.80;99.90;;;9.88;100.00;99658.06;4959917;28;20301;-74
2023/01/13 00:28:46;;;;;;;3.08;1.45;;;9.80;99.90;;;9.99;100.00;99643.97;4969640;28;20252;-73
2023/01/13 00:31:20;;;;;;;3.63;1.65;;;10.00;99.90;;;10.06;100.00;99643.06;4966992;28;20320;-73
2023/01/13 00:33:48;;;;;;;3.40;1.55;;;10.00;99.90;;;10.17;100.00;99634.25;4973093;28;20208;-72
2023/01/13 00:36:17;;;;;;;2.55;1.23;;;10.10;99.90;;;10.22;100.00;99623.72;4973549;28;20221;-74
2023/01/13 00:38:45;;;;;;;3.42;1.52;;;10.20;99.90;;;10.23;100.00;99617.53;4967042;28;20197;-73
2023/01/13 00:41:16;;;;;;;5.95;2.45;;;10.20;99.90;;;10.13;100.00;99614.00;4966700;28;20241;-74
2023/01/13 00:43:43;;;;;;;3.88;1.55;;;10.10;99.90;;;10.07;100.00;99611.38;4968003;28;20320;-72
2023/01/13 00:46:14;;;;;;;3.42;1.45;;;10.10;99.90;;;9.96;100.00;99607.88;4971796;28;20248;-74
2023/01/13 00:48:42;;;;;;;3.75;1.52;;;10.00;99.90;;;9.89;100.00;99621.97;4970070;28;20221;-73
2023/01/13 00:51:16;;;;;;;3.65;1.65;;;9.90;99.90;;;9.83;100.00;99624.63;4964569;28;20252;-73
2023/01/13 00:53:47;;;;;;;3.15;1.50;;;9.80;99.90;;;9.80;100.00;99628.16;4969684;28;20245;-74
2023/01/13 00:56:19;;;;;;;3.90;1.70;;;9.80;99.90;;;9.78;100.00;99629.91;4973043;28;20212;-72
2023/01/13 00:59:04;;;;;;;3.92;1.52;;;9.80;99.90;;;9.74;100.00;99622.00;4968686;28;20219;-74
2023/01/13 01:01:32;;;;;;;4.15;1.77;;;9.70;99.90;;;9.75;100.00;99627.28;4969898;28;20291;-73
2023/01/13 01:03:59;;;;;;;4.30;1.95;;;9.70;99.90;;;9.77;100.00;99632.53;4965503;28;20215;-73
2023/01/13 01:06:27;;;;;;;4.40;1.98;;;9.70;99.90;;;9.75;100.00;99629.91;5004150;28;20291;-73
2023/01/13 01:08:55;;;;;;;5.35;2.15;;;9.70;99.90;;;9.74;100.00;99630.78;4969549;28;20264;-74
2023/01/13 01:11:29;;;;;;;5.13;2.28;;;9.70;99.90;;;9.70;100.00;99631.66;4969643;28;20275;-71
2023/01/13 01:13:59;;;;;;;3.72;1.65;;;9.70;99.90;;;9.66;100.00;99629.03;4970307;28;20300;-73
2023/01/13 01:16:30;;;;;;;4.07;2.08;;;9.70;99.90;;;9.69;100.00;99629.91;4976542;28;20217;-75
2023/01/13 01:18:58;;;;;;;4.18;1.77;;;9.70;99.90;;;9.62;100.00;99630.78;4969502;28;20213;-73
2023/01/13 01:21:27;;;;;;;3.58;1.70;;;9.60;99.90;;;9.51;100.00;99630.78;4975941;28;20244;-73
2023/01/13 01:23:55;;;;;;;3.90;1.83;;;9.50;99.90;;;9.48;100.00;99641.34;4968410;28;20210;-75
2023/01/13 01:26:24;;;;;;;4.32;1.83;;;9.50;99.90;;;9.41;100.00;99638.69;4998292;28;20249;-74
2023/01/13 01:28:53;;;;;;;3.50;1.55;;;9.40;99.90;;;9.40;100.00;99637.81;4968769;28;20209;-74
2023/01/13 01:31:27;;;;;;;5.63;2.40;;;9.40;99.90;;;9.48;100.00;99643.97;4967892;28;20335;-73
2023/01/13 01:33:55;;;;;;;4.97;2.13;;;9.50;99.90;;;9.40;100.00;99648.38;4998356;28;20237;-73
2023/01/13 01:36:28;;;;;;;4.55;1.95;;;9.40;99.90;;;9.45;100.00;99643.97;4968800;28;20201;-74
2023/01/13 01:38:57;;;;;;;6.38;2.65;;;9.50;99.90;;;9.46;100.00;99640.47;4968646;28;20307;-74
2023/01/13 01:41:28;;;;;;;2.97;1.35;;;9.40;99.90;;;9.46;100.00;99636.94;4965013;28;20283;-73
2023/01/13 01:44:01;;;;;;;3.33;1.50;;;9.50;99.90;;;9.49;100.00;99636.94;4969043;28;20210;-74
2023/01/13 01:46:43;;;;;;;3.88;1.58;;;9.50;99.90;;;9.47;100.00;99631.66;4970441;28;20668;-74
2023/01/13 01:49:31;;;;;;;6.68;2.75;;;9.50;99.90;;;9.47;100.00;99617.59;4969139;28;20213;-75
2023/01/13 01:52:13;;;;;;;3.22;1.48;;;9.50;99.90;;;9.53;100.00;99620.22;4970495;28;20236;-74
2023/01/13 01:55:14;;;;;;;3.05;1.50;;;9.50;99.90;;;9.55;100.00;99618.47;4964526;28;20609;-74
2023/01/13 01:58:02;;;;;;;2.42;1.20;;;9.60;99.90;;;9.55;100.00;99607.91;4971165;28;20213;-75
2023/01/13 02:00:29;;;;;;;2.17;1.10;;;9.50;99.90;;;9.53;100.00;99600.00;4969704;28;20292;-74
2023/01/13 02:02:58;;;;;;;4.45;2.13;;;9.50;99.90;;;9.57;100.00;99601.75;4968089;28;20213;-74
2023/01/13 02:05:26;;;;;;;3.88;1.73;;;9.60;99.90;;;9.60;100.00;99600.88;4971559;28;20229;-74
2023/01/13 02:07:56;;;;;;;3.13;1.48;;;9.60;99.90;;;9.71;100.00;99596.47;4969713;28;20301;-73
2023/01/13 02:10:27;;;;;;;4.22;1.83;;;9.70;99.90;;;9.72;100.00;99587.66;4970033;28;20233;-74
2023/01/13 02:13:09;;;;;;;4.25;1.85;;;9.70;99.90;;;9.75;100.00;99597.34;4962790;28;20216;-75
2023/01/13 02:16:07;;;;;;;5.03;2.17;;;9.70;99.90;;;9.74;100.00;99582.38;4996045;28;20202;-75
2023/01/13 02:19:23;;;;;;;3.80;1.77;;;9.70;99.90;;;9.81;100.00;99576.22;4964532;28;20224;-74
2023/01/13 02:22:28;;;;;;;2.67;1.25;;;9.70;99.90;;;9.83;100.00;99562.13;4964131;28;20256;-74
2023/01/13 02:25:32;;;;;;;2.78;1.30;;;9.80;99.90;;;9.91;100.00;99570.03;4967745;28;20217;-73
2023/01/13 02:31:47;;;;;;;3.92;1.92;;;9.90;99.90;;;9.87;100.00;99560.34;4955450;28;20233;-74
2023/01/13 02:34:48;;;;;;;3.08;1.50;;;9.90;99.90;;;9.77;100.00;99551.56;4988412;28;20213;-74
2023/01/13 02:37:31;;;;;;;4.00;1.90;;;9.80;99.90;;;9.73;100.00;99555.09;4966051;28;20263;-75
2023/01/13 02:40:23;;;;;;;3.42;1.50;;;9.70;99.90;;;9.73;100.00;99544.53;4970070;28;20266;-74
2023/01/13 02:46:17;;;;;;;4.00;1.50;;;9.90;99.90;;;10.08;100.00;99528.59;4965247;28;20273;-74
2023/01/13 02:48:45;;;;;;;2.38;1.20;;;10.10;99.90;;;10.08;100.00;99519.78;4962424;28;20233;-74
2023/01/13 02:51:21;;;;;;;4.15;1.83;;;10.10;99.90;;;10.00;100.00;99519.81;4954873;28;20229;-75
2023/01/13 02:54:08;;;;;;;2.92;1.38;;;10.00;99.90;;;10.10;100.00;99518.91;4961319;28;20265;-74
2023/01/13 02:56:41;;;;;;;4.63;2.03;;;10.10;99.90;;;10.05;100.00;99512.75;4967966;28;20225;-73
2023/01/13 02:59:11;;;;;;;5.32;2.55;;;10.10;99.90;;;10.08;100.00;99518.03;4958990;28;20210;-74
2023/01/13 03:01:39;;;;;;;4.40;1.83;;;10.10;99.90;;;10.08;100.00;99506.59;4967217;28;20320;-74
2023/01/13 03:04:42;;;;;;;2.72;1.33;;;10.10;99.90;;;10.04;100.00;99513.66;4969450;28;20624;-75
2023/01/13 03:07:22;;;;;;;3.05;1.40;;;10.10;99.90;;;10.02;100.00;99520.69;4968393;28;20201;-73
2023/01/13 03:10:09;;;;;;;5.60;2.28;;;10.00;99.90;;;10.02;100.00;99520.69;4965425;28;20205;-74
2023/01/13 03:12:58;;;;;;;3.50;1.52;;;10.00;99.90;;;10.10;100.00;99525.97;4964123;28;20558;-74
2023/01/13 03:16:14;;;;;;;4.35;1.90;;;10.00;99.90;;;10.11;100.00;99519.78;5000074;28;20221;-73
2023/01/13 03:19:12;;;;;;;4.72;1.90;;;10.10;99.90;;;10.11;100.00;99515.38;4982236;28;20220;-74
2023/01/13 03:22:10;;;;;;;2.95;1.40;;;10.10;99.90;;;10.12;100.00;99496.00;4967676;28;20237;-74
2023/01/13 03:24:51;;;;;;;4.15;1.80;;;10.10;99.90;;;10.15;100.00;99497.75;4999678;28;20222;-74
2023/01/13 03:27:33;;;;;;;3.60;1.58;;;10.10;99.90;;;10.13;100.00;99500.41;4966721;28;20263;-74
2023/01/13 03:30:18;;;;;;;3.22;1.30;;;10.10;99.90;;;10.14;100.00;99493.34;4968999;28;20275;-73
2023/01/13 03:32:54;;;;;;;2.75;1.30;;;10.10;99.90;;;10.08;100.00;99482.81;4966910;28;20229;-74
2023/01/13 03:35:28;;;;;;;3.17;1.50;;;10.10;99.90;;;10.15;100.00;99489.84;4978796;28;20296;-74
2023/01/13 03:38:23;;;;;;;3.60;1.52;;;10.10;99.90;;;10.17;100.00;99480.13;4969831;28;20217;-74
2023/01/13 03:41:04;;;;;;;3.45;1.58;;;10.20;99.90;;;10.15;100.00;99492.47;4978514;28;20730;-72
2023/01/13 03:47:11;;;;;;;3.10;1.50;;;10.20;99.90;;;10.16;100.00;99475.75;4969278;28;20213;-74
2023/01/13 03:49:59;;;;;;;4.57;2.08;;;10.10;99.90;;;10.14;100.00;99472.22;4961796;28;20365;-74
2023/01/13 03:52:50;;;;;;;4.25;2.08;;;10.10;99.90;;;10.14;100.00;99469.59;4967343;28;20208;-74
2023/01/13 03:55:22;;;;;;;3.60;1.48;;;10.20;99.90;;;10.16;100.00;99478.38;4969065;28;20233;-73
2023/01/13 03:58:16;;;;;;;7.50;2.83;;;10.10;99.90;;;10.13;100.00;99470.47;4972407;28;20221;-75
2023/01/13 04:00:57;;;;;;;6.20;2.40;;;10.10;99.90;;;10.17;100.00;99475.72;4991647;28;20276;-75
2023/01/13 04:03:45;;;;;;;4.75;2.03;;;10.10;99.90;;;10.20;100.00;99465.19;4970674;28;20240;-74
2023/01/13 04:06:34;;;;;;;4.65;2.15;;;10.20;99.90;;;10.20;100.00;99459.91;4973087;28;20255;-73
2023/01/13 04:09:33;;;;;;;4.53;1.85;;;10.20;99.90;;;10.33;100.00;99457.19;4980357;28;20216;-73
2023/01/13 04:12:16;;;;;;;6.43;2.60;;;10.30;99.90;;;10.29;100.00;99452.81;4995845;28;20694;-73
2023/01/13 04:14:45;;;;;;;5.28;2.15;;;10.30;99.90;;;10.31;100.00;99457.19;4974289;28;20271;-73
2023/01/13 04:17:12;;;;;;;5.53;2.22;;;10.30;99.90;;;10.24;100.00;99455.47;4971161;28;20237;-73
2023/01/13 04:19:39;;;;;;;5.32;2.22;;;10.20;99.90;;;10.34;100.00;99446.59;4975561;28;20659;-73
2023/01/13 04:22:06;;;;;;;6.00;2.42;;;10.30;99.90;;;10.27;100.00;99444.88;4976074;28;20326;-74
2023/01/13 04:24:33;;;;;;;6.93;3.15;;;10.30;99.90;;;10.35;100.00;99443.06;4959033;28;20213;-74
2023/01/13 04:27:00;;;;;;;5.07;2.13;;;10.30;99.90;;;10.37;100.00;99443.94;4973304;28;20280;-73
2023/01/13 04:29:27;;;;;;;6.07;2.40;;;10.40;99.90;;;10.40;100.00;99448.34;4973893;28;20308;-72
2023/01/13 04:31:54;;;;;;;4.03;1.73;;;10.30;99.90;;;10.40;100.00;99443.06;4975062;28;20264;-75
2023/01/13 04:34:21;;;;;;;3.47;1.52;;;10.40;99.90;;;10.37;100.00;99443.06;4984060;28;20240;-75
2023/01/13 04:36:49;;;;;;;3.33;1.58;;;10.30;99.90;;;10.41;100.00;99444.84;4977421;28;20217;-74
2023/01/13 04:39:16;;;;;;;4.75;2.03;;;10.40;99.90;;;10.41;100.00;99435.16;4966702;28;20589;-73
2023/01/13 04:42:00;;;;;;;3.65;1.77;;;10.40;99.90;;;10.42;100.00;99428.09;4978225;28;20233;-73
2023/01/13 04:44:29;;;;;;;3.95;1.70;;;10.40;99.90;;;10.46;100.00;99428.06;4970768;28;20209;-74
2023/01/13 04:46:57;;;;;;;2.67;1.40;;;10.50;99.90;;;10.38;100.00;99431.63;4981488;28;20216;-75
2023/01/13 04:49:24;;;;;;;3.25;1.65;;;10.40;99.90;;;10.42;100.00;99434.25;4980734;28;20241;-75
2023/01/13 04:51:52;;;;;;;4.50;1.88;;;10.40;99.90;;;10.41;100.00;99427.22;4972013;28;20229;-74
2023/01/13 04:54:20;;;;;;;6.38;2.63;;;10.40;99.90;;;10.48;100.00;99420.13;4970680;28;20205;-73
2023/01/13 04:56:47;;;;;;;5.45;2.17;;;10.40;99.90;;;10.50;100.00;99413.06;4975334;28;20229;-74
2023/01/13 04:59:14;;;;;;;4.78;2.08;;;10.50;99.90;;;10.44;100.00;99415.75;4974660;28;20260;-74
2023/01/13 05:01:41;;;;;;;3.83;1.60;;;10.40;99.90;;;10.47;100.00;99408.69;4973902;28;20237;-74
2023/01/13 05:04:09;;;;;;;3.20;1.45;;;10.50;99.90;;;10.43;100.00;99406.94;4977155;28;20209;-75
2023/01/13 05:06:36;;;;;;;3.22;1.40;;;10.40;99.90;;;10.50;100.00;99410.41;4972862;28;20209;-74
2023/01/13 05:09:03;;;;;;;4.53;1.88;;;10.50;99.90;;;10.53;99.62;99403.34;4971987;28;20241;-75
2023/01/13 05:17:03;;;;;;;6.13;2.65;;;10.50;99.90;;;10.53;99.22;99392.78;4973662;28;20217;-74
2023/01/13 05:19:35;;;;;;;5.65;2.25;;;10.50;99.90;;;10.52;99.36;99396.31;4975598;28;20271;-74
2023/01/13 05:27:40;;;;;;;3.72;1.52;;;10.50;99.90;;;10.54;99.11;99388.34;4971198;28;20292;-74
2023/01/13 05:30:11;;;;;;;8.15;2.92;;;10.70;99.90;;;10.57;98.54;99373.34;4971102;28;20236;-73
2023/01/13 05:32:41;;;;;;;4.65;1.85;;;10.50;99.90;;;10.67;97.96;99394.44;4992041;28;20294;-75
2023/01/13 05:35:09;;;;;;;8.88;3.15;;;10.60;99.90;;;10.69;97.63;99374.13;4968779;28;20202;-74
2023/01/13 05:37:36;;;;;;;3.20;1.40;;;10.70;99.90;;;10.66;97.49;99367.13;4994271;23;20232;-75
2023/01/13 05:43:19;;;;;;;3.03;1.27;;;10.60;99.90;;;10.63;96.82;99361.84;4980532;28;20237;-74
2023/01/13 05:45:51;;;;;;;5.15;2.08;;;10.60;99.90;;;10.70;96.59;99371.47;4981538;28;20206;-75
2023/01/13 05:48:21;;;;;;;5.43;2.20;;;10.70;99.90;;;10.63;96.63;99363.63;4989998;28;20286;-76
2023/01/13 05:50:52;;;;;;;3.13;1.38;;;10.60;99.90;;;10.61;96.73;99371.56;4984825;28;20264;-75
2023/01/13 05:53:21;;;;;;;6.88;2.78;;;10.60;99.90;;;10.67;96.56;99390.03;4985598;28;20213;-75
2023/01/13 05:55:49;;;;;;;6.35;2.50;;;10.60;99.90;;;10.64;96.91;99383.88;4986620;28;20272;-77
2023/01/13 05:58:18;;;;;;;5.63;2.38;;;10.60;99.90;;;10.56;98.17;99382.19;4984737;28;20244;-75
2023/01/13 06:00:46;;;;;;;4.20;1.70;;;10.50;99.90;;;10.50;98.68;99381.34;4984095;28;20220;-77
2023/01/13 06:03:14;;;;;;;4.70;1.85;;;10.50;99.90;;;10.49;99.07;99398.97;4989624;28;20228;-77
2023/01/13 06:05:42;;;;;;;3.25;1.42;;;10.50;99.90;;;10.49;99.28;99406.03;4991558;28;20219;-76
2023/01/13 06:08:09;;;;;;;2.97;1.23;;;10.50;99.90;;;10.45;99.69;99410.44;4992619;28;20292;-77
2023/01/13 06:10:36;;;;;;;3.13;1.38;;;10.40;99.90;;;10.43;99.86;99416.63;4986453;28;20324;-75
2023/01/13 06:13:04;;;;;;;3.65;1.42;;;10.40;99.90;;;10.38;100.00;99423.69;4980371;28;20241;-76
2023/01/13 06:15:32;;;;;;;2.80;1.23;;;10.40;99.90;;;10.30;100.00;99439.59;4989385;28;20267;-74
2023/01/13 06:18:02;;;;;;;2.97;1.30;;;10.30;99.90;;;10.07;100.00;99442.31;4992726;28;20678;-75
2023/01/13 06:20:29;;;;;;;3.95;1.55;;;10.10;99.90;;;10.00;100.00;99447.63;4994171;28;20279;-75
2023/01/13 06:22:57;;;;;;;3.05;1.35;;;10.00;99.90;;;10.04;100.00;99474.03;4995049;28;20323;-77
2023/01/13 06:25:30;;;;;;;4.43;2.05;;;10.00;99.90;;;9.89;100.00;99479.38;4988735;28;20213;-77
2023/01/13 06:27:59;;;;;;;6.50;2.58;;;9.90;99.90;;;9.82;100.00;99504.91;4989237;28;20251;-76
2023/01/13 06:30:34;;;;;;;4.97;1.88;;;9.80;99.90;;;9.90;100.00;99539.22;4981469;28;20263;-78
2023/01/13 06:33:06;;;;;;;3.90;1.67;;;9.80;99.90;;;9.88;100.00;99539.22;4982116;28;20208;-77
2023/01/13 06:35:35;;;;;;;4.93;2.00;;;9.90;99.90;;;9.84;100.00;99550.69;4987060;28;20642;-76
2023/01/13 06:38:06;;;;;;;2.83;1.23;;;9.80;99.90;;;9.76;100.00;99549.81;4991054;28;20271;-75
2023/01/13 06:40:34;;;;;;;2.53;1.17;;;9.80;99.90;;;9.70;100.00;99562.16;4990443;28;20221;-74
2023/01/13 06:43:14;;;;;;;3.60;1.60;;;9.70;99.90;;;9.63;100.00;99574.47;4977284;28;20232;-75
2023/01/13 06:45:55;;;;;;;3.83;1.60;;;9.60;99.90;;;9.65;100.00;99579.75;4991234;28;20228;-75
2023/01/13 06:48:31;;;;;;;3.03;1.33;;;9.70;99.90;;;9.61;100.00;99574.47;4992674;28;20256;-77
2023/01/13 06:50:59;;;;;;;3.13;1.35;;;9.60;99.90;;;9.57;100.00;99556.88;4993175;28;20216;-77
2023/01/13 06:53:26;;;;;;;3.92;1.58;;;9.60;99.90;;;9.47;100.00;99539.31;4989417;28;20636;-77
2023/01/13 06:55:53;;;;;;;4.30;1.83;;;9.50;99.90;;;9.48;100.00;99551.63;4988255;28;20204;-77
2023/01/13 06:58:20;;;;;;;3.30;1.40;;;9.50;99.90;;;9.32;100.00;99519.97;4981896;28;20268;-77
2023/01/13 07:00:50;;;;;;;3.50;1.40;;;9.40;99.90;;;9.27;100.00;99505.03;4981593;28;20229;-78
2023/01/13 07:03:18;;;;;;;4.10;1.73;;;9.30;99.90;;;9.23;100.00;99491.84;4985878;28;20235;-76
2023/01/13 07:05:55;;;;;;;3.47;1.38;;;9.20;99.90;;;9.13;100.00;99490.06;4990428;28;20204;-77
2023/01/13 07:08:23;;;;;;;4.28;1.67;;;9.20;99.90;;;9.08;100.00;99489.16;4990894;28;20239;-77
2023/01/13 07:10:51;;;;;;;4.60;1.70;;;9.10;99.90;;;9.07;100.00;99488.28;4991378;28;20311;-77
2023/01/13 07:16:07;;;;;;;4.38;1.70;;;9.10;99.90;;;9.11;100.00;99483.91;4990094;28;20205;-77
2023/01/13 07:18:35;;;;;;;4.30;1.65;;;9.10;99.90;;;8.95;100.00;99473.34;4984566;28;20204;-77
2023/01/13 07:21:08;;;;;;;2.95;1.20;;;9.00;99.90;;;8.87;100.00;99468.94;4983740;28;20269;-77
2023/01/13 07:23:39;;;;;;;3.40;1.35;;;8.90;99.90;;;8.80;100.00;99489.16;4990695;28;20240;-76
2023/01/13 07:26:09;;;;;;;4.10;1.60;;;8.80;99.90;;;8.79;100.00;99494.44;4988010;28;20219;-76
2023/01/13 07:28:37;;;;;;;3.08;1.30;;;8.80;99.90;;;8.73;100.00;99479.47;4976813;28;20284;-77
2023/01/13 07:31:11;;;;;;;7.50;2.75;;;8.80;99.90;;;8.85;100.00;99470.69;4987135;28;20252;-77
2023/01/13 07:33:38;;;;;;;5.47;2.05;;;8.80;99.90;;;8.75;100.00;99472.47;4981380;28;20212;-78
2023/01/13 07:36:06;;;;;;;4.03;1.60;;;8.80;99.90;;;8.73;100.00;99436.44;4967154;28;20234;-77
2023/01/13 07:38:34;;;;;;;3.67;1.50;;;8.80;99.90;;;8.68;100.00;99388.09;4984956;28;20217;-78
2023/01/13 07:43:47;;;;;;;3.80;1.48;;;8.60;99.90;;;8.52;99.03;99364.41;4985750;28;20259;-77
2023/01/13 07:46:15;;;;;;;4.43;1.67;;;8.50;99.90;;;8.51;97.95;99359.13;4986953;28;20232;-78
2023/01/13 07:48:42;;;;;;;3.00;1.23;;;8.50;99.90;;;8.38;98.56;99350.34;4991847;28;20732;-76
2023/01/13 07:51:11;;;;;;;3.00;1.30;;;8.40;99.90;;;8.34;98.61;99356.47;4987837;28;20224;-76
2023/01/13 07:53:38;;;;;;;4.18;1.58;;;8.40;99.90;;;8.43;97.13;99347.72;4988504;28;20204;-77
2023/01/13 07:56:07;;;;;;;3.95;1.58;;;8.40;99.90;;;8.22;97.95;99344.16;4985915;28;20240;-77
2023/01/13 07:58:35;;;;;;;3.20;1.25;;;8.30;99.90;;;8.13;98.47;99370.47;4988782;28;20217;-77
2023/01/13 08:01:11;;;;;;;3.58;1.50;;;8.20;99.90;;;8.17;98.12;99380.13;4978001;28;20255;-76
2023/01/13 08:03:39;;;;;;;3.33;1.50;;;8.20;99.90;;;8.24;97.35;99402.97;4979801;28;20232;-77
2023/01/13 08:06:07;;;;;;;3.38;1.38;;;8.20;99.90;;;8.24;97.36;99418.78;4987985;28;20210;-78
2023/01/13 08:08:34;;;;;;;6.68;2.65;;;8.30;99.90;;;8.15;98.02;99438.94;4991898;28;20637;-79
2023/01/13 08:11:06;;;;;;;5.88;2.28;;;8.20;99.90;;;8.21;98.36;99454.75;4988008;28;20229;-79
2023/01/13 08:13:33;;;;;;;4.50;1.70;;;8.20;99.90;;;8.23;98.58;99453.88;4994470;28;20204;-77
2023/01/13 08:16:11;;;;;;;4.28;1.63;;;8.20;99.90;;;8.39;98.83;99461.84;4993897;28;20235;-77
2023/01/13 08:18:38;;;;;;;2.38;1.00;;;8.40;99.90;;;8.31;99.00;99453.91;4991724;28;20224;-77
2023/01/13 08:21:14;;;;;;;3.63;1.52;;;8.30;99.90;;;8.18;100.00;99465.28;4993762;28;20671;-75
2023/01/13 08:23:43;;;;;;;4.07;1.60;;;8.20;99.90;;;8.16;100.00;99477.56;4987412;28;20323;-77
2023/01/13 08:26:14;;;;;;;4.65;1.70;;;8.20;99.90;;;8.12;100.00;99499.50;4998306;28;20232;-78
2023/01/13 08:28:41;;;;;;;3.50;1.50;;;8.10;99.90;;;8.19;100.00;99523.22;4989624;28;20745;-77
2023/01/13 08:31:14;;;;;;;7.65;2.83;;;8.20;99.90;;;8.34;100.00;99519.81;4987033;28;20280;-75
2023/01/13 08:33:43;;;;;;;3.63;1.50;;;8.30;99.90;;;8.41;100.00;99534.75;4979318;28;20304;-77
2023/01/13 08:36:12;;;;;;;5.35;2.10;;;8.30;99.90;;;8.34;100.00;99528.59;4984245;28;20205;-76
2023/01/13 08:38:42;;;;;;;4.38;1.63;;;8.30;99.90;;;8.46;100.00;99546.19;5003987;28;20225;-77
2023/01/13 08:41:53;;;;;;;5.93;2.22;;;8.50;99.90;;;8.46;100.00;99540.91;4987585;28;20714;-77
2023/01/13 08:44:05;;;;;;;3.70;1.42;;;8.50;99.90;;;8.44;100.00;99547.94;4992297;28;20232;-77
2023/01/13 08:46:32;;;;;;;4.03;1.50;;;8.40;99.90;;;8.57;100.00;99536.56;4988289;28;20287;-77
2023/01/13 08:49:00;;;;;;;4.10;1.60;;;8.50;99.90;;;8.59;99.97;99526.03;4988281;28;20240;-75
2023/01/13 08:51:27;;;;;;;4.30;1.67;;;8.50;99.90;;;8.41;100.00;99511.03;4996048;28;20244;-77
2023/01/13 08:53:54;;;;;;;3.97;1.65;;;8.50;99.90;;;8.43;100.00;99530.38;5006489;28;20209;-77
2023/01/13 08:56:21;;;;;;;4.07;1.63;;;8.40;99.90;;;8.50;100.00;99536.53;4983528;28;20205;-77
2023/01/13 08:58:49;;;;;;;3.63;1.38;;;8.50;99.90;;;8.47;100.00;99531.25;4990802;28;20266;-77
2023/01/13 09:01:21;;;;;;;3.42;1.33;;;8.50;99.90;;;8.54;100.00;99528.66;4986233;28;20286;-77
2023/01/13 09:03:49;;;;;;;4.95;1.80;;;8.50;99.90;;;8.63;99.83;99536.56;4984303;28;20236;-77
2023/01/13 09:06:16;;;;;;;5.72;2.10;;;8.60;99.90;;;8.73;99.44;99545.38;4990415;28;20729;-77
2023/01/13 09:08:44;;;;;;;4.40;1.55;;;8.70;99.90;;;8.84;98.86;99548.91;4997525;28;20322;-77
2023/01/13 09:14:19;;;;;;;3.90;1.45;;;8.70;99.90;;;8.77;99.47;99551.53;4997225;28;20200;-77
2023/01/13 09:16:47;;;;;;;4.43;1.80;;;8.80;99.90;;;8.73;99.98;99562.94;4999864;28;20629;-77
2023/01/13 09:19:14;;;;;;;3.28;1.33;;;8.70;99.90;;;8.71;100.00;99567.34;5003966;28;20251;-77
2023/01/13 09:21:41;;;;;;;4.60;1.85;;;8.70;99.90;;;8.63;100.00;99569.94;4979757;28;20265;-77
2023/01/13 09:24:08;;;;;;;4.70;1.80;;;8.70;99.90;;;8.72;100.00;99593.69;5000004;28;20243;-77
2023/01/13 09:26:37;;;;;;;2.55;1.17;;;8.70;99.90;;;8.82;100.00;99597.25;4989920;28;20207;-77
2023/01/13 09:29:04;;;;;;;4.00;1.55;;;8.80;99.90;;;8.91;100.00;99608.69;5000669;28;20657;-77
2023/01/13 09:31:34;;;;;;;4.55;1.83;;;8.90;99.90;;;9.06;99.70;99607.84;4991444;28;20215;-77
2023/01/13 09:36:48;;;;;;;3.58;1.42;;;9.00;99.90;;;9.09;99.80;99612.25;4992688;28;20244;-78
2023/01/13 09:39:16;;;;;;;3.92;1.55;;;9.00;99.90;;;9.20;99.23;99623.72;4999069;28;20228;-77
2023/01/13 09:44:54;;;;;;;4.80;1.80;;;9.30;99.90;;;9.34;94.89;99566.56;4984428;28;20232;-78
2023/01/13 09:47:44;;;;;;;3.85;1.85;;;9.30;99.90;;;9.32;94.08;99562.19;4983084;28;20586;-77
2023/01/13 09:50:14;;;;;;;2.63;1.23;;;9.30;99.90;;;9.27;93.73;99559.53;4982670;28;20260;-78
2023/01/13 09:52:42;;;;;;;2.95;1.30;;;9.30;99.90;;;9.29;92.12;99553.38;4985242;28;20201;-77
2023/01/13 09:55:26;;;;;;;4.25;1.67;;;9.30;99.90;;;9.38;91.00;99525.25;4985004;28;20220;-76
2023/01/13 09:57:53;;;;;;;24.45;5.65;;;9.30;99.90;;;9.40;90.30;99518.19;5011862;23;20233;-83
2023/01/13 10:00:24;;;;;;;7.47;2.60;;;9.30;99.90;;;9.35;90.15;99518.19;4973484;28;20303;-80
2023/01/13 10:03:12;;;;;;;7.30;2.65;;;9.30;99.90;;;9.32;90.38;99514.69;4972624;28;20205;-81
2023/01/13 10:05:57;;;;;;;7.80;2.80;;;9.30;99.90;;;9.38;89.59;99501.50;4971910;28;20591;-79
2023/01/13 10:08:31;;;;;;;7.72;2.60;;;9.40;99.90;;;9.35;89.51;99501.50;4949689;28;20638;-80
2023/01/13 10:13:58;;;;;;;3.40;1.38;;;9.30;99.90;;;9.40;87.97;99468.06;4977436;28;20221;-78
2023/01/13 10:16:40;;;;;;;7.15;2.50;;;9.40;99.90;;;9.32;88.47;99456.66;4980675;28;20205;-78
2023/01/13 10:19:37;;;;;;;7.10;2.53;;;9.40;99.90;;;9.40;87.68;99460.16;4974614;28;20209;-77
2023/01/13 10:22:27;;;;;;;6.35;2.40;;;9.30;99.90;;;9.42;87.29;99454.00;4968471;28;20249;-78
2023/01/13 10:25:10;;;;;;;9.02;3.58;;;9.40;99.90;;;9.43;87.42;99465.41;4962249;28;20660;-77
2023/01/13 10:27:38;;;;;;;5.38;2.00;;;9.40;99.90;;;9.50;87.49;99454.84;4969772;28;20230;-77
2023/01/13 10:30:32;;;;;;;5.32;2.17;;;9.50;99.90;;;9.50;87.32;99456.59;4969310;28;20264;-77
2023/01/13 10:33:08;;;;;;;5.20;2.20;;;9.50;99.90;;;9.52;87.54;99473.31;4967642;28;20293;-77
2023/01/13 10:36:02;;;;;;;5.65;2.13;;;9.50;99.90;;;9.46;87.52;99442.53;4964394;28;20244;-78
2023/01/13 10:38:36;;;;;;;11.10;4.13;;;9.50;99.90;;;9.54;85.09;99402.94;4965405;28;20224;-77
2023/01/13 10:41:26;;;;;;;4.90;1.95;;;9.50;99.90;;;9.45;85.13;99387.13;4968056;28;20224;-77
2023/01/13 10:44:03;;;;;;;6.25;2.42;;;9.50;99.90;;;9.53;83.96;99364.22;4967016;28;20260;-76
2023/01/13 10:46:50;;;;;;;4.35;1.80;;;9.50;99.90;;;9.50;84.05;99367.75;4968810;28;20276;-77
2023/01/13 10:49:35;;;;;;;6.25;2.58;;;9.50;99.90;;;9.53;82.71;99336.06;4966805;28;20248;-76
2023/01/13 10:52:24;;;;;;;5.93;2.55;;;9.50;99.90;;;9.57;82.33;99332.53;4965354;28;20225;-76
2023/01/13 10:54:53;;;;;;;4.97;2.08;;;9.50;99.90;;;9.71;81.57;99315.75;4966279;28;20221;-77
2023/01/13 10:57:23;;;;;;;4.65;1.83;;;9.70;99.90;;;9.72;80.71;99270.00;4970980;28;20225;-78
2023/01/13 10:59:51;;;;;;;7.93;3.13;;;9.70;99.90;;;9.66;80.10;99241.88;4979008;28;20253;-77
2023/01/13 11:02:28;;;;;;;5.43;2.13;;;9.60;99.90;;;9.59;79.86;99230.47;4972996;28;20260;-77
2023/01/13 11:05:01;;;;;;;3.55;1.40;;;9.60;99.90;;;9.58;79.40;99212.00;4976334;28;20267;-77
2023/01/13 11:07:34;;;;;;;7.65;3.70;;;9.60;99.90;;;9.66;77.61;99140.69;4970290;28;20311;-76
2023/01/13 11:10:15;;;;;;;6.90;2.45;;;9.60;99.90;;;9.75;76.90;99120.38;4977497;28;20209;-75
2023/01/13 11:13:15;;;;;;;8.10;2.75;;;10.00;99.90;;;9.99;76.61;99115.75;4966003;28;20220;-78
2023/01/13 11:15:46;;;;;;;6.38;2.20;;;9.90;99.90;;;9.91;76.96;99127.28;4963226;28;20213;-76
2023/01/13 11:18:23;;;;;;;6.97;2.50;;;9.90;99.90;;;9.95;77.24;99154.53;4982257;28;20205;-78
2023/01/13 11:20:50;;;;;;;8.20;2.75;;;9.90;99.90;;;10.12;76.74;99120.91;4975315;28;20228;-78
2023/01/13 11:23:35;;;;;;;8.18;2.85;;;10.00;99.90;;;10.05;76.94;99123.63;4973217;28;20714;-78
2023/01/13 11:26:19;;;;;;;8.75;2.97;;;10.10;99.90;;;9.84;77.39;99127.34;4978158;28;20217;-78
2023/01/13 11:28:56;;;;;;;4.65;1.80;;;9.90;99.90;;;10.02;77.19;99137.72;4972489;28;20216;-77
2023/01/13 11:31:32;;;;;;;6.95;2.65;;;9.90;99.90;;;10.19;77.14;99162.22;4970531;28;20221;-78
2023/01/13 11:34:31;;;;;;;5.72;2.20;;;10.10;99.90;;;10.29;76.84;99157.75;4977584;28;20299;-77